Rio Grande City, Texas
Current Conditions -  °F | °C
As of 9:53 AM on Thursday 27 Nov 2014 (Local Time) from KMFE Reporting Station
Clear Clear  
Wind Chill: 17°   Ceiling: Unl
Heat Index: 17°   Visibility: 10mi
Dew Point: 11°   Wind: 6mph
Humidity: 67%   Direction: 140°SE
Pressure: 30.45"   Gusts: NA
Location:  26.38°N, 98.81°W
Report Text: KMFE 271553Z 14005KT 10SM CLR 17/11 A3045 RMK AO2 SLP309 T01720111
Loading
Personal Weather Stations






























Interactive Weather Map New forecast layout! Learn more

10-Day Weather Forecast

Advertisements
Track Severe Weather on mobile